createdAt,value
2022-08-26T00:01:31.526Z,12.65
2022-08-26T00:03:59.232Z,11.10
2022-08-26T00:06:26.486Z,15.52
2022-08-26T00:08:53.967Z,18.98
2022-08-26T00:11:26.562Z,18.60
2022-08-26T00:13:55.570Z,13.38
2022-08-26T00:16:28.263Z,10.65
2022-08-26T00:18:55.744Z,15.15
2022-08-26T00:21:22.876Z,13.35
2022-08-26T00:23:50.523Z,13.98
2022-08-26T00:26:17.856Z,11.55
2022-08-26T00:28:44.983Z,10.13
2022-08-26T00:31:12.384Z,16.77
2022-08-26T00:33:40.211Z,13.13
2022-08-26T00:36:07.712Z,17.23
2022-08-26T00:38:37.855Z,15.85
2022-08-26T00:41:05.360Z,15.60
2022-08-26T00:43:46.253Z,16.27
2022-08-26T00:46:24.221Z,17.45
2022-08-26T00:48:54.402Z,18.92
2022-08-26T00:51:23.631Z,13.65
2022-08-26T00:53:58.196Z,15.02
2022-08-26T00:56:30.964Z,16.58
2022-08-26T00:59:02.353Z,9.52
2022-08-26T01:01:32.396Z,16.67
2022-08-26T01:04:01.014Z,16.63
2022-08-26T01:06:28.553Z,17.23
2022-08-26T01:08:56.575Z,13.65
2022-08-26T01:11:24.793Z,15.73
2022-08-26T01:13:54.794Z,17.15
2022-08-26T01:16:24.860Z,15.55
2022-08-26T01:18:55.669Z,16.80
2022-08-26T01:21:29.430Z,20.75
2022-08-26T01:23:57.900Z,15.07
2022-08-26T01:26:34.163Z,15.07
2022-08-26T01:29:03.697Z,17.42
2022-08-26T01:31:37.628Z,15.18
2022-08-26T01:34:15.690Z,16.93
2022-08-26T01:36:43.978Z,13.48
2022-08-26T01:39:14.034Z,13.45
2022-08-26T01:41:44.149Z,13.43
2022-08-26T01:44:18.484Z,14.70
2022-08-26T01:46:47.429Z,17.03
2022-08-26T01:49:15.672Z,13.23
2022-08-26T01:51:44.492Z,14.63
2022-08-26T01:54:13.667Z,14.70
2022-08-26T01:56:41.172Z,14.43
2022-08-26T01:59:12.174Z,17.23
2022-08-26T02:01:39.622Z,13.60
2022-08-26T02:04:12.526Z,17.05
2022-08-26T02:06:39.757Z,21.77
2022-08-26T02:09:07.422Z,21.38
2022-08-26T02:11:36.767Z,14.85
2022-08-26T02:14:10.657Z,14.60
2022-08-26T02:16:42.212Z,17.25
2022-08-26T02:19:17.096Z,14.98
2022-08-26T02:21:45.910Z,16.40
2022-08-26T02:24:21.813Z,19.65
2022-08-26T02:26:49.384Z,17.73
2022-08-26T02:29:26.943Z,13.20
2022-08-26T02:31:57.926Z,22.05
2022-08-26T02:34:32.716Z,19.20
2022-08-26T02:39:29.648Z,18.38
2022-08-26T02:41:57.605Z,12.82
2022-08-26T02:44:25.726Z,16.20
2022-08-26T02:46:54.553Z,10.55
2022-08-26T02:49:23.540Z,14.88
2022-08-26T02:51:51.285Z,17.45
2022-08-26T02:54:21.285Z,16.70
2022-08-26T02:56:48.898Z,17.35
2022-08-26T02:59:16.360Z,15.10
2022-08-26T03:01:45.181Z,20.27
2022-08-26T03:04:12.577Z,17.98
2022-08-26T03:06:41.637Z,13.55
2022-08-26T03:09:09.058Z,18.13
2022-08-26T03:11:36.734Z,19.13
2022-08-26T03:14:04.310Z,13.60
2022-08-26T03:16:36.240Z,20.25
2022-08-26T03:19:05.807Z,15.27
2022-08-26T03:21:33.345Z,22.10
2022-08-26T03:24:00.540Z,19.35
2022-08-26T03:26:28.754Z,16.25
2022-08-26T03:29:15.452Z,20.27
2022-08-26T03:31:43.873Z,12.40
2022-08-26T03:34:14.867Z,16.58
2022-08-26T03:36:42.134Z,20.98
2022-08-26T03:39:10.836Z,17.15
2022-08-26T03:41:38.128Z,22.73
2022-08-26T03:44:06.364Z,16.25
2022-08-26T03:46:33.792Z,18.10
2022-08-26T03:49:02.091Z,22.52
2022-08-26T03:51:29.726Z,19.60
2022-08-26T03:54:00.545Z,20.63
2022-08-26T03:56:27.738Z,18.25
2022-08-26T03:58:54.992Z,18.55
2022-08-26T04:01:22.242Z,16.25
2022-08-26T04:04:00.354Z,25.38
2022-08-26T04:06:46.100Z,26.15
2022-08-26T04:09:18.481Z,16.88
2022-08-26T04:11:47.429Z,18.40
2022-08-26T04:14:20.382Z,24.48
2022-08-26T04:16:48.212Z,15.90
2022-08-26T04:19:16.000Z,15.77
2022-08-26T04:21:45.016Z,22.70
2022-08-26T04:24:15.513Z,24.55
2022-08-26T04:26:43.823Z,16.95
2022-08-26T04:29:14.514Z,17.45
2022-08-26T04:31:42.013Z,23.73
2022-08-26T04:34:10.991Z,17.23
2022-08-26T04:36:38.534Z,16.63
2022-08-26T04:39:05.773Z,23.45
2022-08-26T04:41:33.546Z,17.33
2022-08-26T04:44:02.390Z,14.70
2022-08-26T04:46:30.124Z,21.20
2022-08-26T04:48:57.390Z,15.35
2022-08-26T04:51:28.125Z,16.30
2022-08-26T04:53:56.977Z,20.48
2022-08-26T04:56:29.344Z,17.30
2022-08-26T04:58:56.813Z,15.45
2022-08-26T05:01:24.375Z,20.17
2022-08-26T05:03:51.734Z,20.60
2022-08-26T05:06:19.976Z,25.13
2022-08-26T05:08:47.507Z,18.42
2022-08-26T05:11:15.321Z,12.57
2022-08-26T05:13:42.508Z,27.55
2022-08-26T05:16:11.869Z,18.65
2022-08-26T05:18:40.287Z,15.20
2022-08-26T05:21:07.515Z,16.85
2022-08-26T05:23:35.695Z,22.20
2022-08-26T05:26:07.704Z,16.38
2022-08-26T05:28:35.468Z,24.63
2022-08-26T05:31:15.532Z,18.67
2022-08-26T05:33:45.404Z,19.67
2022-08-26T05:36:15.640Z,21.88
2022-08-26T05:38:43.956Z,15.02
2022-08-26T05:41:28.259Z,15.82
2022-08-26T05:44:05.853Z,35.78
2022-08-26T05:46:34.431Z,24.60
2022-08-26T05:49:02.209Z,22.95
2022-08-26T05:51:30.863Z,16.70
2022-08-26T05:53:58.467Z,22.30
2022-08-26T05:56:27.643Z,19.05
2022-08-26T05:58:56.351Z,15.05
2022-08-26T06:01:26.966Z,17.27
2022-08-26T06:03:57.583Z,26.98
2022-08-26T06:06:32.739Z,18.00
2022-08-26T06:09:02.036Z,23.13
2022-08-26T06:11:32.130Z,19.85
2022-08-26T06:14:03.760Z,18.55
2022-08-26T06:16:34.704Z,18.55
2022-08-26T06:19:03.744Z,13.57
2022-08-26T06:21:40.054Z,17.67
2022-08-26T06:24:29.571Z,23.27
2022-08-26T06:27:01.118Z,14.38
2022-08-26T06:29:30.739Z,26.70
2022-08-26T06:31:58.045Z,19.38
2022-08-26T06:34:30.309Z,18.80
2022-08-26T06:36:59.923Z,12.15
2022-08-26T06:39:30.910Z,15.50
2022-08-26T06:42:00.023Z,14.32
2022-08-26T06:44:27.562Z,23.30
2022-08-26T06:46:55.500Z,16.90
2022-08-26T06:49:26.567Z,14.40
2022-08-26T06:51:58.093Z,12.63
2022-08-26T06:54:26.688Z,17.25
2022-08-26T06:56:53.891Z,12.23
2022-08-26T06:59:21.866Z,15.65
2022-08-26T07:01:49.639Z,11.50
2022-08-26T07:04:20.200Z,12.23
2022-08-26T07:06:52.267Z,15.00
2022-08-26T07:09:24.867Z,23.02
2022-08-26T07:11:52.402Z,12.32
2022-08-26T07:14:21.474Z,24.63
2022-08-26T07:16:50.191Z,16.70
2022-08-26T07:19:31.092Z,17.67
2022-08-26T07:22:03.974Z,20.35
2022-08-26T07:24:37.030Z,19.10
2022-08-26T07:27:06.765Z,21.65
2022-08-26T07:29:36.703Z,15.98
2022-08-26T07:32:04.568Z,18.10
2022-08-26T07:34:33.169Z,17.42
2022-08-26T07:37:01.199Z,20.75
2022-08-26T07:39:31.447Z,15.35
2022-08-26T07:42:01.423Z,14.70
2022-08-26T07:44:30.922Z,15.13
2022-08-26T07:46:59.373Z,22.73
2022-08-26T07:49:27.018Z,17.63
2022-08-26T07:51:55.356Z,15.38
2022-08-26T07:54:27.130Z,13.52
2022-08-26T07:56:55.934Z,21.80
2022-08-26T07:59:23.688Z,12.60
2022-08-26T08:01:51.011Z,12.90
2022-08-26T08:04:22.994Z,22.45
2022-08-26T08:06:53.948Z,15.73
2022-08-26T08:09:21.171Z,20.10
2022-08-26T08:11:49.890Z,13.90
2022-08-26T08:14:22.070Z,20.27
2022-08-26T08:16:51.214Z,16.48
2022-08-26T08:19:23.044Z,12.82
2022-08-26T08:21:51.145Z,8.73
2022-08-26T08:24:18.460Z,21.83
2022-08-26T08:26:46.005Z,18.35
2022-08-26T08:29:13.613Z,13.65
2022-08-26T08:31:58.483Z,17.80
2022-08-26T08:34:28.396Z,17.55
2022-08-26T08:36:57.522Z,20.98
2022-08-26T08:39:25.044Z,14.73
2022-08-26T08:42:16.012Z,14.50
2022-08-26T08:44:45.443Z,13.35
2022-08-26T08:47:36.414Z,17.65
2022-08-26T08:50:10.548Z,15.82
2022-08-26T08:52:41.424Z,15.00
2022-08-26T08:55:11.809Z,19.75
2022-08-26T08:57:53.630Z,18.95
2022-08-26T09:00:30.343Z,18.42
2022-08-26T09:03:11.875Z,15.90
2022-08-26T09:05:48.536Z,23.00
2022-08-26T09:08:19.888Z,12.55
2022-08-26T09:10:48.433Z,20.88
2022-08-26T09:13:25.244Z,26.55
2022-08-26T09:16:07.541Z,10.50
2022-08-26T09:18:34.626Z,20.23
2022-08-26T09:21:07.783Z,20.75
2022-08-26T09:23:37.342Z,17.35
2022-08-26T09:26:24.759Z,21.48
2022-08-26T09:28:58.939Z,20.90
2022-08-26T09:31:32.681Z,17.65
2022-08-26T09:34:19.921Z,18.80
2022-08-26T09:36:51.327Z,21.33
2022-08-26T09:39:24.162Z,21.08
2022-08-26T09:42:05.010Z,16.33
2022-08-26T09:44:32.835Z,28.80
2022-08-26T09:47:07.170Z,28.98
2022-08-26T09:49:39.303Z,20.58
2022-08-26T09:52:08.074Z,26.57
2022-08-26T09:54:36.332Z,18.63
2022-08-26T09:57:30.818Z,18.73
2022-08-26T10:00:00.912Z,24.17
2022-08-26T10:02:33.690Z,22.55
2022-08-26T10:05:09.503Z,24.00
2022-08-26T10:07:36.902Z,19.52
2022-08-26T10:10:09.175Z,18.35
2022-08-26T10:12:45.179Z,25.00
2022-08-26T10:15:14.937Z,17.98
2022-08-26T10:18:05.510Z,23.52
2022-08-26T10:20:36.683Z,20.80
2022-08-26T10:23:18.005Z,29.85
2022-08-26T10:26:02.984Z,24.23
2022-08-26T10:28:40.489Z,17.23
2022-08-26T10:31:14.760Z,26.65
2022-08-26T10:33:43.076Z,24.48
2022-08-26T10:36:43.088Z,19.02
2022-08-26T10:39:31.911Z,21.85
2022-08-26T10:42:07.454Z,27.63
2022-08-26T10:44:38.206Z,26.10
2022-08-26T10:47:57.544Z,20.23
2022-08-26T10:50:33.127Z,35.53
2022-08-26T10:53:34.354Z,20.33
2022-08-26T10:56:18.785Z,23.85
2022-08-26T10:58:49.632Z,15.73
2022-08-26T11:01:47.058Z,26.05
2022-08-26T11:04:23.976Z,25.10
2022-08-26T11:07:32.805Z,23.95
2022-08-26T11:10:06.696Z,25.27
2022-08-26T11:12:37.303Z,22.17
2022-08-26T11:15:11.068Z,23.33
2022-08-26T11:18:08.169Z,23.98
2022-08-26T11:20:42.133Z,22.35
2022-08-26T11:23:12.070Z,20.65
2022-08-26T11:26:10.080Z,17.48
2022-08-26T11:28:47.806Z,24.85
2022-08-26T11:31:27.072Z,21.80
2022-08-26T11:34:00.010Z,17.67
2022-08-26T11:36:45.574Z,18.83
2022-08-26T11:39:30.956Z,18.52
2022-08-26T11:42:16.990Z,23.67
2022-08-26T11:44:49.695Z,23.30
2022-08-26T11:47:17.768Z,22.73
2022-08-26T11:49:48.855Z,18.98
2022-08-26T11:52:36.664Z,27.98
2022-08-26T11:58:45.791Z,13.85
2022-08-26T12:01:33.242Z,28.17
2022-08-26T12:04:07.017Z,34.58
2022-08-26T12:06:42.037Z,10.77
2022-08-26T12:09:28.807Z,16.40
2022-08-26T12:12:16.100Z,13.75
2022-08-26T12:14:54.303Z,10.30
2022-08-26T12:17:40.761Z,11.73
2022-08-26T12:20:46.114Z,8.50
2022-08-26T12:23:53.000Z,14.00
2022-08-26T12:26:44.198Z,9.93
2022-08-26T12:29:37.236Z,10.80
2022-08-26T12:32:10.089Z,11.52
2022-08-26T12:34:47.002Z,8.40
2022-08-26T12:37:14.447Z,11.07
2022-08-26T12:39:44.461Z,9.65
2022-08-26T12:42:17.628Z,16.05
2022-08-26T12:44:54.089Z,11.57
2022-08-26T12:47:43.601Z,9.18
2022-08-26T12:50:21.771Z,12.80
2022-08-26T12:52:51.979Z,9.30
2022-08-26T12:55:24.683Z,11.35
2022-08-26T12:58:13.440Z,11.68
2022-08-26T13:00:46.493Z,15.77
2022-08-26T13:03:35.276Z,11.27
2022-08-26T13:06:08.464Z,18.27
2022-08-26T13:08:53.990Z,12.43
2022-08-26T13:11:31.893Z,8.88
2022-08-26T13:14:07.216Z,8.95
2022-08-26T13:16:36.033Z,10.77
2022-08-26T13:19:25.470Z,12.10
2022-08-26T13:21:55.288Z,18.35
2022-08-26T13:24:26.684Z,15.75
2022-08-26T13:26:53.874Z,11.30
2022-08-26T13:29:21.075Z,9.30
2022-08-26T13:31:49.333Z,17.20
2022-08-26T13:34:19.625Z,17.75
2022-08-26T13:36:48.022Z,10.38
2022-08-26T13:39:15.795Z,11.50
2022-08-26T13:41:43.306Z,12.15
2022-08-26T13:44:11.243Z,10.32
2022-08-26T13:46:38.738Z,12.05
2022-08-26T13:49:06.446Z,9.13
2022-08-26T13:51:34.136Z,8.93
2022-08-26T13:54:01.691Z,8.00
2022-08-26T13:56:29.834Z,13.10
2022-08-26T13:58:58.231Z,7.35
2022-08-26T14:01:26.154Z,7.35
2022-08-26T14:03:56.642Z,9.27
2022-08-26T14:06:34.037Z,9.05
2022-08-26T14:09:01.604Z,13.25
2022-08-26T14:12:15.659Z,12.13
2022-08-26T14:14:46.092Z,8.65
2022-08-26T14:17:19.659Z,8.98
2022-08-26T14:19:48.216Z,7.97
2022-08-26T14:22:17.638Z,9.13
2022-08-26T14:24:45.151Z,11.07
2022-08-26T14:27:12.873Z,20.02
2022-08-26T14:29:49.371Z,11.45
2022-08-26T14:32:24.478Z,8.77
2022-08-26T14:37:19.885Z,18.85
2022-08-26T14:39:48.307Z,16.20
2022-08-26T14:42:18.702Z,12.55
2022-08-26T14:44:52.777Z,5.82
2022-08-26T14:47:19.967Z,12.15
2022-08-26T14:49:47.226Z,10.50
2022-08-26T14:52:14.936Z,8.45
2022-08-26T14:54:42.443Z,8.32
2022-08-26T14:57:11.868Z,9.48
2022-08-26T14:59:49.762Z,7.13
2022-08-26T15:02:22.241Z,9.07
2022-08-26T15:05:02.141Z,13.50
2022-08-26T15:07:30.028Z,8.05
2022-08-26T15:09:57.296Z,12.85
2022-08-26T15:12:24.603Z,12.35
2022-08-26T15:14:51.820Z,12.23
2022-08-26T15:17:19.087Z,10.98
2022-08-26T15:19:46.523Z,13.02
2022-08-26T15:22:13.951Z,15.65
2022-08-26T15:24:41.107Z,10.10
2022-08-26T15:27:09.021Z,11.20
2022-08-26T15:29:36.482Z,14.00
2022-08-26T15:32:04.654Z,11.15
2022-08-26T15:34:32.109Z,9.45
2022-08-26T15:36:59.600Z,7.55
2022-08-26T15:39:27.186Z,7.93
2022-08-26T15:41:56.120Z,8.23
2022-08-26T15:44:25.074Z,9.60
2022-08-26T15:46:58.436Z,9.10
2022-08-26T15:49:26.529Z,10.75
2022-08-26T15:51:53.668Z,13.57
2022-08-26T15:54:22.756Z,8.18
2022-08-26T15:56:52.275Z,8.60
2022-08-26T15:59:20.710Z,10.52
2022-08-26T16:01:50.339Z,13.82
2022-08-26T16:04:18.560Z,13.15
2022-08-26T16:06:47.922Z,8.75
2022-08-26T16:09:15.146Z,9.30
2022-08-26T16:11:42.270Z,12.20
2022-08-26T16:14:09.801Z,12.70
2022-08-26T16:16:39.391Z,7.55
2022-08-26T16:19:07.896Z,5.50
2022-08-26T16:21:35.239Z,9.00
2022-08-26T16:24:03.339Z,8.63
2022-08-26T16:26:32.871Z,6.07
2022-08-26T16:29:06.519Z,8.68
2022-08-26T16:31:34.319Z,11.25
2022-08-26T16:34:01.902Z,11.75
2022-08-26T16:36:29.083Z,7.80
2022-08-26T16:38:56.403Z,8.10
2022-08-26T16:41:25.276Z,9.48
2022-08-26T16:43:53.079Z,9.10
2022-08-26T16:46:23.649Z,10.32
2022-08-26T16:48:55.092Z,8.70
2022-08-26T16:51:24.249Z,7.10
2022-08-26T16:53:52.378Z,10.25
2022-08-26T16:56:24.078Z,6.30
2022-08-26T16:59:04.700Z,9.48
2022-08-26T17:01:32.285Z,9.65
2022-08-26T17:03:59.604Z,7.07
2022-08-26T17:06:26.811Z,9.55
2022-08-26T17:08:54.121Z,9.38
2022-08-26T17:11:21.414Z,7.55
2022-08-26T17:13:48.884Z,9.85
2022-08-26T17:16:16.573Z,7.60
2022-08-26T17:18:43.950Z,7.90
2022-08-26T17:21:12.793Z,9.10
2022-08-26T17:23:41.270Z,6.85
2022-08-26T17:26:10.160Z,11.13
2022-08-26T17:28:37.872Z,8.30
2022-08-26T17:31:06.819Z,11.15
2022-08-26T17:33:34.204Z,6.72
2022-08-26T17:36:01.714Z,9.15
2022-08-26T17:38:29.221Z,7.40
2022-08-26T17:40:57.505Z,9.07
2022-08-26T17:43:27.903Z,10.02
2022-08-26T17:46:07.060Z,7.47
2022-08-26T17:48:36.610Z,10.40
2022-08-26T17:51:12.802Z,11.13
2022-08-26T17:53:41.351Z,8.15
2022-08-26T17:56:11.215Z,11.82
2022-08-26T17:58:39.132Z,14.68
2022-08-26T18:01:07.027Z,11.85
2022-08-26T18:03:35.271Z,6.72
2022-08-26T18:06:03.007Z,7.55
2022-08-26T18:08:30.355Z,9.55
2022-08-26T18:10:57.537Z,10.43
2022-08-26T18:13:27.787Z,10.07
2022-08-26T18:15:55.620Z,7.47
2022-08-26T18:18:22.935Z,7.65
2022-08-26T18:21:01.420Z,8.18
2022-08-26T18:23:29.389Z,8.93
2022-08-26T18:25:58.762Z,11.82
2022-08-26T18:28:26.286Z,7.18
2022-08-26T18:30:53.520Z,8.55
2022-08-26T18:33:24.405Z,8.18
2022-08-26T18:35:55.351Z,9.95
2022-08-26T18:38:22.727Z,10.60
2022-08-26T18:40:49.935Z,9.48
2022-08-26T18:43:17.211Z,8.05
2022-08-26T18:45:44.621Z,10.40
2022-08-26T18:48:12.364Z,12.05
2022-08-26T18:50:40.885Z,12.65
2022-08-26T18:53:08.270Z,13.65
2022-08-26T18:55:35.566Z,9.82
2022-08-26T18:58:02.876Z,9.10
2022-08-26T19:00:31.589Z,8.70
2022-08-26T19:02:58.893Z,8.82
2022-08-26T19:05:27.924Z,8.57
2022-08-26T19:07:56.565Z,7.22
2022-08-26T19:10:24.773Z,11.07
2022-08-26T19:12:53.724Z,11.38
2022-08-26T19:15:25.713Z,8.27
2022-08-26T19:17:52.926Z,9.07
2022-08-26T19:20:20.446Z,6.60
2022-08-26T19:22:47.598Z,10.05
2022-08-26T19:25:15.292Z,11.23
2022-08-26T19:27:42.518Z,10.57
2022-08-26T19:30:10.219Z,10.07
2022-08-26T19:32:37.396Z,9.85
2022-08-26T19:35:06.105Z,13.70
2022-08-26T19:37:33.356Z,15.60
2022-08-26T19:40:00.629Z,10.20
2022-08-26T19:42:27.971Z,14.63
2022-08-26T19:45:24.525Z,11.18
2022-08-26T19:47:53.623Z,9.65
2022-08-26T19:50:22.128Z,11.27
2022-08-26T19:52:49.383Z,11.40
2022-08-26T19:55:18.533Z,10.00
2022-08-26T19:57:45.791Z,12.75
2022-08-26T20:00:15.989Z,10.70
2022-08-26T20:02:44.271Z,12.52
2022-08-26T20:05:13.399Z,10.90
2022-08-26T20:07:41.135Z,11.70
2022-08-26T20:10:10.057Z,12.25
2022-08-26T20:12:37.406Z,10.93
2022-08-26T20:15:05.396Z,14.32
2022-08-26T20:17:32.657Z,10.85
2022-08-26T20:20:29.702Z,10.77
2022-08-26T20:23:03.688Z,11.45
2022-08-26T20:25:32.560Z,12.05
2022-08-26T20:28:00.657Z,10.38
2022-08-26T20:30:28.219Z,7.93
2022-08-26T20:32:55.633Z,9.50
2022-08-26T20:35:23.941Z,16.40
2022-08-26T20:37:51.506Z,11.85
2022-08-26T20:40:19.050Z,11.20
2022-08-26T20:42:46.240Z,9.93
2022-08-26T20:49:28.203Z,13.70
2022-08-26T20:51:55.487Z,11.20
2022-08-26T20:54:28.210Z,10.00
2022-08-26T20:56:56.807Z,11.50
2022-08-26T20:59:24.594Z,12.35
2022-08-26T21:01:52.515Z,10.40
2022-08-26T21:04:23.247Z,8.88
2022-08-26T21:06:54.416Z,7.93
2022-08-26T21:09:23.530Z,9.30
2022-08-26T21:11:51.966Z,11.80
2022-08-26T21:14:20.546Z,12.23
2022-08-26T21:16:48.233Z,12.38
2022-08-26T21:19:17.963Z,10.95
2022-08-26T21:21:46.647Z,7.85
2022-08-26T21:24:13.987Z,10.13
2022-08-26T21:26:41.226Z,9.40
2022-08-26T21:29:09.823Z,9.07
2022-08-26T21:31:44.923Z,9.15
2022-08-26T21:34:14.045Z,10.07
2022-08-26T21:36:41.772Z,11.63
2022-08-26T21:39:11.788Z,10.00
2022-08-26T21:41:40.911Z,10.73
2022-08-26T21:44:08.808Z,11.45
2022-08-26T21:46:37.529Z,11.45
2022-08-26T21:49:09.669Z,11.93
2022-08-26T21:51:42.326Z,10.15
2022-08-26T21:54:11.490Z,10.80
2022-08-26T21:56:49.496Z,8.75
2022-08-26T21:59:24.052Z,9.43
2022-08-26T22:01:52.844Z,9.63
2022-08-26T22:04:20.629Z,9.68
2022-08-26T22:06:53.803Z,9.35
2022-08-26T22:09:27.838Z,9.47
2022-08-26T22:11:56.961Z,16.25
2022-08-26T22:14:30.493Z,9.90
2022-08-26T22:17:02.800Z,11.98
2022-08-26T22:19:39.146Z,8.07
2022-08-26T22:24:57.043Z,9.57
2022-08-26T22:27:26.697Z,12.18
2022-08-26T22:29:55.508Z,11.65
2022-08-26T22:32:23.814Z,14.10
2022-08-26T22:34:58.503Z,9.02
2022-08-26T22:37:25.792Z,10.60
2022-08-26T22:39:54.766Z,10.77
2022-08-26T22:42:24.692Z,8.88
2022-08-26T22:44:52.968Z,9.63
2022-08-26T22:47:21.727Z,10.15
2022-08-26T22:49:50.458Z,11.00
2022-08-26T22:52:20.850Z,13.45
2022-08-26T22:54:52.140Z,10.02
2022-08-26T22:57:30.470Z,11.60
2022-08-26T22:59:58.752Z,14.85
2022-08-26T23:02:28.960Z,12.38
2022-08-26T23:05:01.662Z,12.40
2022-08-26T23:07:32.748Z,9.98
2022-08-26T23:10:02.106Z,11.18
2022-08-26T23:12:29.440Z,9.55
2022-08-26T23:14:58.030Z,10.20
2022-08-26T23:17:27.370Z,10.90
2022-08-26T23:19:57.197Z,8.13
2022-08-26T23:22:26.041Z,10.68
2022-08-26T23:27:40.437Z,8.85
2022-08-26T23:30:24.006Z,9.77
2022-08-26T23:32:53.837Z,11.20
2022-08-26T23:35:29.315Z,8.25
2022-08-26T23:37:59.110Z,11.45
2022-08-26T23:40:34.798Z,8.88
2022-08-26T23:43:12.632Z,8.50
2022-08-26T23:45:43.653Z,10.95
2022-08-26T23:48:11.775Z,11.15
2022-08-26T23:51:05.682Z,11.75
2022-08-26T23:53:41.033Z,8.45
2022-08-26T23:56:17.105Z,10.35
2022-08-26T23:58:50.612Z,12.02
